עמוד ראשי
METAR-TAF:

METAR-TAF

שדות תעופה :

Nakashibetsu, יפן

קו רוחב: 43-34N, קו אורך: 144-58E, גובה: 66מטר

תצפית מזג אוויר נוכחית

הדו"ח נערך לפני 1 שעות ו 29דקות, בשעה 02:00 UTC
רוח 2קשר עם כיוונים משתנים
טמפרטורת 29 צלסיוס
לחות 79%
לחץ 1006 hPa
ראות 10 קילומטר או יותר
מעט עננים בגובה 1500רגל
עננים בינוניים

METAR: RJCN 210200Z VRB02KT 9999 FEW015 BKN/// 29/25 Q1006

זמן: 12:29 (03:29 UTC)


TAF: חסר

תצפיות ותחזיות מזג אוויר לגבי יותר מ- 4,000 שדות תעופה ברחבי העולם. דוחות METAR ו- TAF.

התחנות הזמינות מסומנות בנקודות צהובות ואדומות על גבי המפה.

העבר את העכבר לנקודה הצבעונית על מנת לראות את שם התחנה.

לאחר מכן, לחץ כדי לראות את תוכן ואת תחזיות מזג האוויר.

כדי לשנות את המפה: לחץ על הכפתורים הירוקים עם הפלוס השחור כדי להתקרב; על הכפתור הירוק עם המקף כדי להתרחק; או בחיצים הירוקים למפות סמוכות.


METAR-TAF: